Time;durP1;ratioP1;P1;durP2;ratioP2;P2;SDS_P1;SDS_P2;PMS_P1;PMS_P2;Temp;Humidity;BMP_temperature;BMP_pressure;BME280_temperature;BME280_humidity;BME280_pressure;Samples;Min_cycle;Max_cycle;Signal;HPM_P1;HPM_P2
2021/09/03 00:02:22;;;;;;;27.48;17.02;;;9.40;99.90;;;;;;5074406;28;20024;-79
2021/09/03 00:04:48;;;;;;;28.85;18.02;;;9.40;99.90;;;;;;5077634;28;20024;-79
2021/09/03 00:07:14;;;;;;;26.77;16.63;;;9.40;99.90;;;;;;5094448;28;20425;-79
2021/09/03 00:09:39;;;;;;;27.05;15.27;;;9.40;99.90;;;;;;5090530;28;20028;-79
2021/09/03 00:12:06;;;;;;;22.42;14.07;;;9.40;99.90;;;;;;5095750;28;20024;-79
2021/09/03 00:14:33;;;;;;;25.88;13.95;;;9.40;99.90;;;;;;5093469;28;20028;-79
2021/09/03 00:16:59;;;;;;;28.42;14.98;;;9.40;99.90;;;;;;5095727;28;20059;-80
2021/09/03 00:19:25;;;;;;;21.10;13.43;;;9.50;99.90;;;;;;5080003;28;20025;-79
2021/09/03 00:21:52;;;;;;;25.05;15.30;;;9.50;99.90;;;;;;5088579;28;20541;-79
2021/09/03 00:24:19;;;;;;;25.77;15.18;;;9.40;99.90;;;;;;5088242;28;20381;-79
2021/09/03 00:26:45;;;;;;;24.85;15.18;;;9.40;99.90;;;;;;5095350;28;20028;-79
2021/09/03 00:29:10;;;;;;;22.13;13.35;;;9.30;99.90;;;;;;5085244;28;20028;-79
2021/09/03 00:31:36;;;;;;;18.83;11.32;;;9.30;99.90;;;;;;5075161;28;20099;-79
2021/09/03 00:34:01;;;;;;;12.48;8.75;;;9.20;99.90;;;;;;5082423;28;20024;-79
2021/09/03 00:36:27;;;;;;;18.33;10.38;;;9.10;99.90;;;;;;5111056;28;20039;-79
2021/09/03 00:38:53;;;;;;;17.17;10.20;;;9.10;99.90;;;;;;5084814;28;20573;-79
2021/09/03 00:41:18;;;;;;;30.00;17.23;;;9.00;99.90;;;;;;5073651;28;20123;-78
2021/09/03 00:43:45;;;;;;;21.67;13.27;;;9.00;99.90;;;;;;5073555;28;20056;-78
2021/09/03 00:46:11;;;;;;;27.88;16.42;;;9.00;99.90;;;;;;5073630;28;20108;-79
2021/09/03 00:48:36;;;;;;;14.38;10.73;;;8.90;99.90;;;;;;5080505;28;20461;-79
2021/09/03 00:51:02;;;;;;;16.40;11.57;;;8.80;99.90;;;;;;5078033;28;20035;-78
2021/09/03 00:53:29;;;;;;;18.25;11.45;;;8.80;99.90;;;;;;5092780;28;20023;-79
2021/09/03 00:55:54;;;;;;;18.05;11.10;;;8.70;99.90;;;;;;5094885;28;20129;-79
2021/09/03 00:58:21;;;;;;;20.48;11.63;;;8.70;99.90;;;;;;5082870;28;20052;-79
2021/09/03 01:00:49;;;;;;;18.38;10.88;;;8.60;99.90;;;;;;5093483;28;20500;-79
2021/09/03 01:03:15;;;;;;;18.52;11.18;;;8.70;99.90;;;;;;5091311;28;20520;-79
2021/09/03 01:05:41;;;;;;;18.40;10.88;;;8.60;99.90;;;;;;5094638;28;20070;-79
2021/09/03 01:08:06;;;;;;;29.40;18.05;;;8.70;99.90;;;;;;5089655;28;20052;-79
2021/09/03 01:10:34;;;;;;;27.65;16.10;;;8.60;99.90;;;;;;5094263;28;20428;-79
2021/09/03 01:13:00;;;;;;;30.85;17.17;;;8.60;99.90;;;;;;5091966;28;20034;-79
2021/09/03 01:15:25;;;;;;;30.10;17.40;;;8.60;99.90;;;;;;5082724;28;20023;-79
2021/09/03 01:17:51;;;;;;;29.08;16.50;;;8.60;99.90;;;;;;5093727;28;20027;-79
2021/09/03 01:20:17;;;;;;;28.08;15.55;;;8.60;99.90;;;;;;5087831;28;20569;-79
2021/09/03 01:22:43;;;;;;;26.67;14.65;;;8.60;99.90;;;;;;5092694;28;20025;-79
2021/09/03 01:25:10;;;;;;;21.90;13.20;;;8.50;99.90;;;;;;5075020;28;20036;-78
2021/09/03 01:27:36;;;;;;;22.45;14.23;;;8.50;99.90;;;;;;5073894;28;20036;-79
2021/09/03 01:30:04;;;;;;;23.63;13.82;;;8.50;99.90;;;;;;5082648;28;20039;-78
2021/09/03 01:32:30;;;;;;;24.15;13.15;;;8.50;99.90;;;;;;5086535;28;20547;-78
2021/09/03 01:34:55;;;;;;;23.10;13.90;;;8.50;99.90;;;;;;5074268;28;20028;-79
2021/09/03 01:37:21;;;;;;;25.83;14.02;;;8.50;99.90;;;;;;5072647;28;20390;-79
2021/09/03 01:39:47;;;;;;;21.42;12.93;;;8.40;99.90;;;;;;5087932;28;20030;-78
2021/09/03 01:42:12;;;;;;;19.88;11.90;;;8.40;99.90;;;;;;5086018;28;20454;-79
2021/09/03 01:44:38;;;;;;;19.52;11.38;;;8.40;99.90;;;;;;5088761;28;20028;-79
2021/09/03 01:47:04;;;;;;;24.98;12.73;;;8.40;99.90;;;;;;5076476;28;20124;-79
2021/09/03 01:49:29;;;;;;;19.45;12.00;;;8.40;99.90;;;;;;5075289;28;20016;-79
2021/09/03 01:51:55;;;;;;;21.65;11.95;;;8.40;99.90;;;;;;5076355;28;20032;-79
2021/09/03 01:54:20;;;;;;;16.67;11.13;;;8.40;99.90;;;;;;5090104;28;20527;-78
2021/09/03 01:56:46;;;;;;;17.42;10.82;;;8.50;99.90;;;;;;5092478;28;20016;-78
2021/09/03 01:59:12;;;;;;;22.75;11.52;;;8.50;99.90;;;;;;5078378;28;20107;-79
2021/09/03 02:01:38;;;;;;;18.52;11.05;;;8.50;99.90;;;;;;5077992;28;20024;-79
2021/09/03 02:04:04;;;;;;;20.58;11.38;;;8.50;99.90;;;;;;5083261;28;20032;-79
2021/09/03 02:06:29;;;;;;;15.85;9.30;;;8.50;99.90;;;;;;5072003;28;20016;-79
2021/09/03 02:08:55;;;;;;;16.55;10.68;;;8.50;99.90;;;;;;5080303;28;20397;-79
2021/09/03 02:11:22;;;;;;;18.25;10.65;;;8.50;99.90;;;;;;5093280;28;20366;-80
2021/09/03 02:13:47;;;;;;;31.45;12.93;;;8.50;99.90;;;;;;5081203;28;20029;-79
2021/09/03 02:16:13;;;;;;;25.98;11.80;;;8.50;99.90;;;;;;5074848;28;20075;-79
2021/09/03 02:18:39;;;;;;;23.00;10.90;;;8.50;99.90;;;;;;5102634;28;20158;-79
2021/09/03 02:21:04;;;;;;;39.97;14.70;;;8.50;99.90;;;;;;5093316;28;20027;-79
2021/09/03 02:23:31;;;;;;;44.95;17.77;;;8.50;99.90;;;;;;5089657;28;20028;-78
2021/09/03 02:25:58;;;;;;;37.33;15.73;;;8.50;99.90;;;;;;5091771;28;20427;-79
2021/09/03 02:28:23;;;;;;;38.08;15.07;;;8.50;99.90;;;;;;5090331;28;20040;-79
2021/09/03 02:30:49;;;;;;;41.80;15.75;;;8.50;99.90;;;;;;5072089;28;20028;-79
2021/09/03 02:33:15;;;;;;;45.45;17.38;;;8.60;99.90;;;;;;5072952;28;20036;-80
2021/09/03 02:35:42;;;;;;;43.10;16.00;;;8.60;99.90;;;;;;5082122;28;20020;-79
2021/09/03 02:38:08;;;;;;;58.90;19.52;;;8.50;99.90;;;;;;5090308;28;20445;-79
2021/09/03 02:40:34;;;;;;;70.00;19.92;;;8.60;99.90;;;;;;5088134;28;20020;-78
2021/09/03 02:43:00;;;;;;;45.03;17.17;;;8.60;99.90;;;;;;5091431;28;20447;-79
2021/09/03 02:45:25;;;;;;;65.53;19.40;;;8.60;99.90;;;;;;5081681;28;20024;-79
2021/09/03 02:47:51;;;;;;;57.00;19.95;;;8.70;99.90;;;;;;5072243;28;20052;-79
2021/09/03 02:50:17;;;;;;;71.40;21.20;;;8.70;99.90;;;;;;5088902;28;20470;-80
2021/09/03 02:52:42;;;;;;;83.65;23.48;;;8.80;99.90;;;;;;5092106;28;20016;-80
2021/09/03 02:55:08;;;;;;;71.18;24.75;;;8.80;99.90;;;;;;5091062;28;20469;-80
2021/09/03 02:57:34;;;;;;;74.13;26.52;;;8.90;99.90;;;;;;5091506;28;20020;-80
2021/09/03 03:00:00;;;;;;;88.32;27.30;;;9.00;99.90;;;;;;5080784;28;20551;-80
2021/09/03 03:02:26;;;;;;;75.20;22.30;;;9.10;99.90;;;;;;5072692;28;20463;-79
2021/09/03 03:04:52;;;;;;;116.47;26.05;;;9.10;99.90;;;;;;5086390;28;20040;-79
2021/09/03 03:07:17;;;;;;;170.50;28.92;;;9.20;99.90;;;;;;5078180;28;20035;-79
2021/09/03 03:09:43;;;;;;;97.88;24.73;;;9.20;99.90;;;;;;5088137;28;20020;-79
2021/09/03 03:12:10;;;;;;;99.03;23.73;;;9.10;99.90;;;;;;5092870;28;20439;-79
2021/09/03 03:14:36;;;;;;;104.43;32.17;;;9.10;99.90;;;;;;5089335;28;20028;-79
2021/09/03 03:17:03;;;;;;;107.60;31.35;;;9.20;99.90;;;;;;5091296;28;20036;-79
2021/09/03 03:19:29;;;;;;;108.93;35.33;;;9.20;99.90;;;;;;5080757;28;20063;-79
2021/09/03 03:21:55;;;;;;;94.85;31.77;;;9.30;99.90;;;;;;5090608;28;20413;-79
2021/09/03 03:24:21;;;;;;;58.33;23.63;;;9.30;99.90;;;;;;5090752;28;20473;-79
2021/09/03 03:26:47;;;;;;;240.25;37.55;;;9.30;99.90;;;;;;5072624;28;20031;-79
2021/09/03 03:29:14;;;;;;;72.35;24.35;;;9.30;99.90;;;;;;5082493;28;20032;-79
2021/09/03 03:31:40;;;;;;;46.83;19.73;;;9.30;99.90;;;;;;5091633;28;20062;-80
2021/09/03 03:34:05;;;;;;;185.15;28.48;;;9.30;99.90;;;;;;5087702;28;20024;-79
2021/09/03 03:36:31;;;;;;;315.17;40.20;;;9.30;99.90;;;;;;5090850;28;20541;-79
2021/09/03 03:39:00;;;;;;;52.28;21.45;;;9.30;99.90;;;;;;5080870;28;20033;-79
2021/09/03 03:41:25;;;;;;;80.03;21.67;;;9.30;99.90;;;;;;5071123;28;20020;-79
2021/09/03 03:43:51;;;;;;;47.15;21.35;;;9.30;99.90;;;;;;5083828;28;20538;-79
2021/09/03 03:46:17;;;;;;;39.25;19.25;;;9.40;99.90;;;;;;5095043;28;20112;-79
2021/09/03 03:48:42;;;;;;;43.53;20.08;;;9.40;99.90;;;;;;5091665;28;20085;-79
2021/09/03 03:51:08;;;;;;;40.50;18.33;;;9.40;99.90;;;;;;5094556;28;20030;-79
2021/09/03 03:53:33;;;;;;;97.70;28.35;;;9.40;99.90;;;;;;5087310;28;20119;-79
2021/09/03 03:55:59;;;;;;;73.15;23.55;;;9.40;99.90;;;;;;5081577;28;20016;-79
2021/09/03 03:58:25;;;;;;;49.83;21.58;;;9.40;99.90;;;;;;5091540;28;20035;-79
2021/09/03 04:00:51;;;;;;;51.88;20.80;;;9.50;99.90;;;;;;5095969;28;20116;-79
2021/09/03 04:03:16;;;;;;;38.85;20.25;;;9.50;99.90;;;;;;5093267;28;20032;-78
2021/09/03 04:05:42;;;;;;;36.75;19.38;;;9.50;99.90;;;;;;5094005;28;20027;-79
2021/09/03 04:08:08;;;;;;;33.67;19.20;;;9.60;99.90;;;;;;5092117;28;20524;-79
2021/09/03 04:10:34;;;;;;;33.95;17.85;;;9.60;99.90;;;;;;5092184;28;20454;-79
2021/09/03 04:12:59;;;;;;;37.08;19.38;;;9.60;99.90;;;;;;5091108;28;20044;-79
2021/09/03 04:15:25;;;;;;;44.60;19.10;;;9.70;99.90;;;;;;5073933;28;20024;-79
2021/09/03 04:17:51;;;;;;;87.38;24.83;;;9.70;99.90;;;;;;5075345;28;20029;-79
2021/09/03 04:20:17;;;;;;;67.80;21.17;;;9.70;99.90;;;;;;5093795;28;20020;-79
2021/09/03 04:22:42;;;;;;;94.78;23.35;;;9.70;99.90;;;;;;5084979;28;20017;-79
2021/09/03 04:25:09;;;;;;;105.88;25.42;;;9.80;99.90;;;;;;5078693;28;20032;-79
2021/09/03 04:27:36;;;;;;;121.30;25.98;;;9.70;99.90;;;;;;5095152;28;20048;-79
2021/09/03 04:30:04;;;;;;;164.18;29.65;;;9.80;99.90;;;;;;5093010;28;20026;-79
2021/09/03 04:32:29;;;;;;;80.97;23.00;;;9.80;99.90;;;;;;5094336;28;20081;-79
2021/09/03 04:34:55;;;;;;;93.50;24.80;;;9.80;99.90;;;;;;5093889;28;20028;-79
2021/09/03 04:37:21;;;;;;;69.97;23.00;;;9.80;99.90;;;;;;5094109;28;20043;-79
2021/09/03 04:39:46;;;;;;;118.40;25.15;;;9.80;99.90;;;;;;5093041;28;20028;-78
2021/09/03 04:42:12;;;;;;;151.68;30.63;;;9.90;99.90;;;;;;5086717;28;20424;-79
2021/09/03 04:44:38;;;;;;;132.45;25.25;;;9.90;99.90;;;;;;5074729;28;20470;-79
2021/09/03 04:47:04;;;;;;;212.15;32.78;;;9.90;99.90;;;;;;5071259;28;20040;-79
2021/09/03 04:49:30;;;;;;;124.00;27.30;;;9.90;99.90;;;;;;5086099;28;20028;-79
2021/09/03 04:51:55;;;;;;;53.40;22.30;;;10.00;99.90;;;;;;5091042;28;20031;-79
2021/09/03 04:54:21;;;;;;;177.60;28.27;;;10.00;99.90;;;;;;5081767;28;20028;-79
2021/09/03 04:56:46;;;;;;;103.28;26.50;;;10.10;99.90;;;;;;5076077;28;20098;-78
2021/09/03 04:59:12;;;;;;;157.35;28.75;;;10.10;99.90;;;;;;5091192;28;20386;-77
2021/09/03 05:01:38;;;;;;;151.35;27.67;;;10.20;99.90;;;;;;5093084;28;20120;-77
2021/09/03 05:04:03;;;;;;;159.63;29.67;;;10.20;99.90;;;;;;5084443;28;20021;-77
2021/09/03 05:06:29;;;;;;;145.27;26.95;;;10.20;99.90;;;;;;5084670;28;20074;-77
2021/09/03 05:08:55;;;;;;;164.95;28.02;;;10.20;99.90;;;;;;5087346;28;20493;-78
2021/09/03 05:11:20;;;;;;;174.70;31.52;;;10.30;99.90;;;;;;5093588;28;20044;-77
2021/09/03 05:13:46;;;;;;;148.82;30.05;;;10.30;99.90;;;;;;5088213;28;20024;-78
2021/09/03 05:16:12;;;;;;;151.50;30.73;;;10.30;99.90;;;;;;5091185;28;20058;-77
2021/09/03 05:18:37;;;;;;;160.43;30.83;;;10.40;99.90;;;;;;5091333;28;20028;-77
2021/09/03 05:21:03;;;;;;;183.63;32.33;;;10.40;99.90;;;;;;5090838;28;20046;-78
2021/09/03 05:23:29;;;;;;;155.60;32.05;;;10.40;99.90;;;;;;5088006;28;20036;-78
2021/09/03 05:25:55;;;;;;;110.82;27.20;;;10.40;99.90;;;;;;5090102;28;20118;-78
2021/09/03 05:28:21;;;;;;;121.82;34.03;;;10.40;99.90;;;;;;5086940;28;20036;-78
2021/09/03 05:30:47;;;;;;;197.90;36.00;;;10.50;99.90;;;;;;5076611;28;20131;-78
2021/09/03 05:33:13;;;;;;;218.63;37.30;;;10.50;99.90;;;;;;5083494;28;20091;-79
2021/09/03 05:35:38;;;;;;;145.40;32.70;;;10.50;99.90;;;;;;5090987;28;20051;-79
2021/09/03 05:38:04;;;;;;;159.00;31.55;;;10.50;99.90;;;;;;5088844;28;20457;-79
2021/09/03 05:40:32;;;;;;;98.88;33.55;;;10.50;99.90;;;;;;5089432;28;20047;-77
2021/09/03 05:42:57;;;;;;;104.93;31.20;;;10.60;99.90;;;;;;5089518;28;20027;-77
2021/09/03 05:45:23;;;;;;;73.95;28.75;;;10.60;99.90;;;;;;5089135;28;20025;-79
2021/09/03 05:47:48;;;;;;;187.05;37.17;;;10.70;99.90;;;;;;5086939;28;20042;-78
2021/09/03 05:50:16;;;;;;;116.88;31.83;;;10.70;99.90;;;;;;5089169;28;20027;-78
2021/09/03 05:52:42;;;;;;;121.15;30.50;;;10.70;99.90;;;;;;5092526;28;20470;-78
2021/09/03 05:55:09;;;;;;;92.00;31.27;;;10.70;99.90;;;;;;5092523;28;20478;-78
2021/09/03 05:57:34;;;;;;;105.93;31.92;;;10.70;99.90;;;;;;5090733;28;20020;-78
2021/09/03 06:00:00;;;;;;;99.55;33.85;;;10.80;99.90;;;;;;5071958;28;20024;-78
2021/09/03 06:02:27;;;;;;;90.63;31.42;;;10.90;99.90;;;;;;5073483;28;20021;-78
2021/09/03 06:04:52;;;;;;;85.90;32.70;;;10.90;99.90;;;;;;5076748;28;20020;-78
2021/09/03 06:07:18;;;;;;;66.13;30.33;;;10.90;99.90;;;;;;5092172;28;20028;-78
2021/09/03 06:09:44;;;;;;;81.68;31.73;;;11.00;99.90;;;;;;5091813;28;20051;-78
2021/09/03 06:12:10;;;;;;;58.72;31.20;;;11.00;99.90;;;;;;5093111;28;20024;-78
2021/09/03 06:14:35;;;;;;;72.38;30.85;;;11.10;99.90;;;;;;5089973;28;20110;-78
2021/09/03 06:17:01;;;;;;;63.10;31.55;;;11.20;99.90;;;;;;5090008;28;20122;-78
2021/09/03 06:19:27;;;;;;;86.07;35.75;;;11.30;99.90;;;;;;5091296;28;20020;-78
2021/09/03 06:21:53;;;;;;;84.38;37.40;;;11.30;99.90;;;;;;5091289;28;20020;-78
2021/09/03 06:24:31;;;;;;;86.65;35.65;;;11.40;99.90;;;;;;5081904;28;20086;-78
2021/09/03 06:27:10;;;;;;;74.10;34.78;;;11.40;99.90;;;;;;5068246;28;20036;-78
2021/09/03 06:29:43;;;;;;;78.07;36.53;;;11.50;99.90;;;;;;5084395;28;20066;-77
2021/09/03 06:32:10;;;;;;;74.53;36.92;;;11.60;99.90;;;;;;5087389;28;20089;-78
2021/09/03 06:34:38;;;;;;;90.18;39.08;;;11.60;99.90;;;;;;5091751;28;20027;-79
2021/09/03 06:37:04;;;;;;;88.13;38.38;;;11.60;99.90;;;;;;5091769;28;20020;-77
2021/09/03 06:39:29;;;;;;;83.72;36.97;;;11.70;99.90;;;;;;5091745;28;20118;-79
2021/09/03 06:41:55;;;;;;;85.32;40.05;;;11.70;99.90;;;;;;5091749;28;20119;-79
2021/09/03 06:44:21;;;;;;;87.90;41.97;;;11.70;99.90;;;;;;5090882;28;20456;-79
2021/09/03 06:46:46;;;;;;;93.75;42.40;;;11.80;99.90;;;;;;5090418;28;20024;-79
2021/09/03 06:49:12;;;;;;;80.10;38.40;;;11.90;99.90;;;;;;5090326;28;20055;-79
2021/09/03 06:51:38;;;;;;;87.38;40.45;;;11.90;99.90;;;;;;5075395;28;20118;-79
2021/09/03 06:54:03;;;;;;;94.03;42.17;;;12.00;99.90;;;;;;5070722;28;20390;-79
2021/09/03 06:56:29;;;;;;;91.35;43.33;;;12.00;99.90;;;;;;5070177;28;20032;-80
2021/09/03 06:58:55;;;;;;;84.50;39.40;;;12.10;99.90;;;;;;5090645;28;20051;-80
2021/09/03 07:01:20;;;;;;;90.03;46.35;;;12.20;99.90;;;;;;5090249;28;20097;-79
2021/09/03 07:03:46;;;;;;;91.93;44.95;;;12.30;99.90;;;;;;5090249;28;20031;-80
2021/09/03 07:06:12;;;;;;;88.13;45.15;;;12.30;99.90;;;;;;5090414;28;20082;-78
2021/09/03 07:08:37;;;;;;;91.75;46.00;;;12.40;99.90;;;;;;5091446;28;20028;-80
2021/09/03 07:11:03;;;;;;;94.00;47.30;;;12.50;99.90;;;;;;5090647;28;20531;-78
2021/09/03 07:13:29;;;;;;;97.65;46.20;;;12.60;99.90;;;;;;5090220;28;20023;-80
2021/09/03 07:15:54;;;;;;;86.15;44.55;;;12.60;99.90;;;;;;5089416;28;20024;-79
2021/09/03 07:18:20;;;;;;;85.13;44.95;;;12.70;99.90;;;;;;5093634;28;20050;-79
2021/09/03 07:20:45;;;;;;;94.95;47.70;;;12.80;99.90;;;;;;5095417;28;20024;-79
2021/09/03 07:23:11;;;;;;;89.10;45.65;;;13.00;99.90;;;;;;5094687;28;20065;-78
2021/09/03 07:25:37;;;;;;;86.10;46.80;;;13.10;99.90;;;;;;5093086;28;20084;-79
2021/09/03 07:28:02;;;;;;;91.97;50.78;;;13.30;99.90;;;;;;5078781;28;20443;-79
2021/09/03 07:30:28;;;;;;;98.97;52.92;;;13.50;99.90;;;;;;5081656;28;20020;-79
2021/09/03 07:32:54;;;;;;;102.20;53.47;;;13.60;99.90;;;;;;5094282;28;20392;-78
2021/09/03 07:35:19;;;;;;;94.03;48.92;;;13.70;99.90;;;;;;5093864;28;20024;-78
2021/09/03 07:37:45;;;;;;;91.07;50.05;;;13.70;99.90;;;;;;5092883;28;20031;-78
2021/09/03 07:40:11;;;;;;;91.45;48.95;;;14.00;99.90;;;;;;5094148;28;20497;-77
2021/09/03 07:42:37;;;;;;;76.80;42.10;;;14.20;99.90;;;;;;5089819;28;20012;-77
2021/09/03 07:45:04;;;;;;;83.40;47.88;;;14.30;99.90;;;;;;5079213;28;20028;-76
2021/09/03 07:47:30;;;;;;;79.90;45.92;;;14.30;99.90;;;;;;5074463;28;20079;-78
2021/09/03 07:49:56;;;;;;;82.60;49.03;;;14.40;99.90;;;;;;5074089;28;20485;-77
2021/09/03 07:52:22;;;;;;;73.32;44.97;;;14.70;99.90;;;;;;5073917;28;20021;-78
2021/09/03 07:54:47;;;;;;;73.85;45.25;;;15.00;99.90;;;;;;5075170;28;20059;-78
2021/09/03 07:57:14;;;;;;;66.57;41.00;;;15.30;99.90;;;;;;5077503;28;20052;-77
2021/09/03 07:59:40;;;;;;;63.25;37.97;;;15.50;99.90;;;;;;5093679;28;20089;-78
2021/09/03 08:02:05;;;;;;;56.58;34.65;;;15.70;99.90;;;;;;5092033;28;20419;-79
2021/09/03 08:04:31;;;;;;;49.88;32.30;;;15.90;99.90;;;;;;5095376;28;20020;-78
2021/09/03 08:06:57;;;;;;;49.50;28.88;;;16.20;99.90;;;;;;5093912;28;20122;-78
2021/09/03 08:09:23;;;;;;;52.05;32.47;;;16.40;99.90;;;;;;5092329;28;20441;-78
2021/09/03 08:11:50;;;;;;;46.08;27.58;;;16.60;99.90;;;;;;5084162;28;20021;-77
2021/09/03 08:14:15;;;;;;;48.90;26.08;;;16.60;99.90;;;;;;5075063;28;20031;-77
2021/09/03 08:16:41;;;;;;;40.50;24.30;;;16.70;99.90;;;;;;5084801;28;20020;-77
2021/09/03 08:19:08;;;;;;;41.70;24.23;;;16.80;99.90;;;;;;5077017;28;20024;-76
2021/09/03 08:21:34;;;;;;;37.65;23.13;;;16.90;99.90;;;;;;5074835;28;20489;-77
2021/09/03 08:23:59;;;;;;;34.65;22.73;;;17.10;99.90;;;;;;5089550;28;20045;-76
2021/09/03 08:26:25;;;;;;;38.67;21.70;;;17.20;99.90;;;;;;5084259;28;20016;-77
2021/09/03 08:28:51;;;;;;;30.58;19.80;;;17.40;99.90;;;;;;5083230;28;20417;-77
2021/09/03 08:31:16;;;;;;;35.65;19.20;;;17.60;99.90;;;;;;5088050;28;20021;-77
2021/09/03 08:33:42;;;;;;;35.53;20.25;;;17.70;99.90;;;;;;5089907;28;20017;-78
2021/09/03 08:36:08;;;;;;;30.85;19.67;;;17.80;99.90;;;;;;5093516;28;20035;-78
2021/09/03 08:38:34;;;;;;;30.35;19.17;;;17.80;99.90;;;;;;5083054;28;20177;-77
2021/09/03 08:41:00;;;;;;;26.13;16.48;;;17.90;99.90;;;;;;5093222;28;20020;-78
2021/09/03 08:43:27;;;;;;;33.63;18.33;;;18.10;99.90;;;;;;5082674;28;20412;-78
2021/09/03 08:45:54;;;;;;;28.90;16.88;;;18.30;99.90;;;;;;5083364;28;20358;-78
2021/09/03 08:48:22;;;;;;;32.50;15.52;;;18.40;99.90;;;;;;5091151;28;20116;-77
2021/09/03 08:50:55;;;;;;;27.98;16.00;;;18.70;99.90;;;;;;5080335;28;20024;-77
2021/09/03 08:53:22;;;;;;;32.13;15.20;;;18.70;99.90;;;;;;5075035;28;20028;-77
2021/09/03 08:55:50;;;;;;;25.25;16.23;;;19.00;99.90;;;;;;5073690;28;20020;-77
2021/09/03 08:58:16;;;;;;;27.17;16.08;;;19.10;99.90;;;;;;5080902;28;20020;-78
2021/09/03 09:00:43;;;;;;;27.08;13.80;;;19.30;99.90;;;;;;5092711;28;20053;-77
2021/09/03 09:03:13;;;;;;;27.77;15.80;;;19.40;99.90;;;;;;5094194;28;20024;-77
2021/09/03 09:05:49;;;;;;;20.88;13.13;;;19.50;99.90;;;;;;5092009;28;20024;-78
2021/09/03 09:08:16;;;;;;;18.33;9.65;;;19.40;99.90;;;;;;5092999;28;20114;-78
2021/09/03 09:10:48;;;;;;;11.40;7.30;;;19.50;99.30;;;;;;5093540;28;20024;-78
2021/09/03 09:13:20;;;;;;;13.73;7.47;;;19.40;93.50;;;;;;5090565;28;20390;-77
2021/09/03 09:16:00;;;;;;;11.20;7.65;;;19.30;93.30;;;;;;5089748;28;20077;-77
2021/09/03 09:18:51;;;;;;;9.23;5.78;;;19.50;94.00;;;;;;5092030;28;20081;-77
2021/09/03 09:21:31;;;;;;;8.88;5.97;;;19.60;89.10;;;;;;5090791;28;20378;-77
2021/09/03 09:24:01;;;;;;;6.97;5.30;;;19.90;91.30;;;;;;5085177;28;20082;-77
2021/09/03 09:26:45;;;;;;;9.80;5.63;;;19.70;87.80;;;;;;5084251;28;20028;-77
2021/09/03 09:29:25;;;;;;;12.40;6.07;;;19.70;90.30;;;;;;5074368;28;20039;-77
2021/09/03 09:32:09;;;;;;;11.95;6.20;;;19.50;88.20;;;;;;5072201;28;20031;-77
2021/09/03 09:34:37;;;;;;;9.57;5.80;;;19.60;90.50;;;;;;5072992;28;20017;-77
2021/09/03 09:37:06;;;;;;;9.13;6.15;;;19.40;84.50;;;;;;5085312;28;20020;-77
2021/09/03 09:39:56;;;;;;;9.80;5.63;;;19.30;88.10;;;;;;5093983;28;20020;-77
2021/09/03 09:42:30;;;;;;;8.68;5.65;;;19.20;91.10;;;;;;5094184;28;20081;-78
2021/09/03 09:45:07;;;;;;;10.88;5.47;;;19.30;92.60;;;;;;5109761;28;20024;-77
2021/09/03 09:47:34;;;;;;;8.07;5.50;;;19.20;88.10;;;;;;5109640;28;20039;-78
2021/09/03 09:50:30;;;;;;;10.30;6.45;;;19.20;90.00;;;;;;5093938;28;20027;-77
2021/09/03 09:53:11;;;;;;;8.90;5.93;;;19.30;89.40;;;;;;5092912;28;20387;-77
2021/09/03 09:55:40;;;;;;;8.63;5.65;;;19.20;90.50;;;;;;5080450;28;20025;-77
2021/09/03 09:58:06;;;;;;;12.75;6.20;;;19.40;94.90;;;;;;5104922;28;20520;-78
2021/09/03 10:00:35;;;;;;;8.35;6.05;;;19.70;96.20;;;;;;5073247;28;20013;-77
2021/09/03 10:03:02;;;;;;;9.45;5.95;;;19.80;90.60;;;;;;5080484;28;20031;-78
2021/09/03 10:05:29;;;;;;;8.88;6.15;;;20.10;85.20;;;;;;5109333;28;20028;-78
2021/09/03 10:07:55;;;;;;;9.60;6.80;;;20.10;81.00;;;;;;5092872;28;20048;-77
2021/09/03 10:10:21;;;;;;;8.98;6.82;;;19.90;83.10;;;;;;5090914;28;20484;-77
2021/09/03 10:12:47;;;;;;;12.40;7.22;;;20.10;86.20;;;;;;5092047;28;20028;-78
2021/09/03 10:15:14;;;;;;;11.93;6.93;;;20.00;82.90;;;;;;5093750;28;20024;-78
2021/09/03 10:17:41;;;;;;;11.10;7.05;;;19.80;85.70;;;;;;5091317;28;20056;-77
2021/09/03 10:20:08;;;;;;;12.60;7.53;;;19.80;85.80;;;;;;5091552;28;20024;-77
2021/09/03 10:22:50;;;;;;;10.93;6.93;;;19.90;89.30;;;;;;5090670;28;20024;-79
2021/09/03 10:25:15;;;;;;;9.15;6.25;;;20.10;86.70;;;;;;5094131;28;20033;-79
2021/09/03 10:28:01;;;;;;;9.85;7.55;;;20.30;80.80;;;;;;5089980;28;20122;-79
2021/09/03 10:30:27;;;;;;;29.70;18.30;;;20.20;83.30;;;;;;5089083;28;20063;-79
2021/09/03 10:33:13;;;;;;;18.75;12.20;;;20.40;83.80;;;;;;5092368;28;20493;-78
2021/09/03 10:35:39;;;;;;;17.58;12.55;;;20.40;83.70;;;;;;5092042;28;20044;-79
2021/09/03 10:38:30;;;;;;;10.60;7.72;;;20.50;82.50;;;;;;5087283;28;20020;-79
2021/09/03 10:40:57;;;;;;;13.38;9.88;;;20.70;81.20;;;;;;5080363;28;20032;-79
2021/09/03 10:43:43;;;;;;;10.52;7.28;;;20.70;83.30;;;;;;5100597;28;20017;-79
2021/09/03 10:46:14;;;;;;;8.43;5.95;;;20.60;79.80;;;;;;5077426;28;20107;-79
2021/09/03 10:48:51;;;;;;;11.50;7.03;;;20.40;78.30;;;;;;5092942;28;20108;-78
2021/09/03 10:51:36;;;;;;;13.77;7.45;;;20.60;81.80;;;;;;5092825;28;20051;-79
2021/09/03 10:54:19;;;;;;;19.27;9.68;;;20.80;81.20;;;;;;5108501;28;20118;-79
2021/09/03 10:57:02;;;;;;;;;;;21.00;77.80;;;;;;5107773;28;20108;-79
2021/09/03 10:59:28;;;;;;;56.83;26.00;;;21.20;75.90;;;;;;5084931;28;19904;-79
2021/09/03 11:01:58;;;;;;;10.75;6.65;;;21.10;77.30;;;;;;5091586;28;20039;-79
2021/09/03 11:04:25;;;;;;;14.05;8.63;;;21.00;72.20;;;;;;5093227;28;20559;-79
2021/09/03 11:07:12;;;;;;;10.68;7.25;;;21.00;74.70;;;;;;5071314;28;20016;-79
2021/09/03 11:09:42;;;;;;;12.23;7.45;;;21.00;75.60;;;;;;5098056;28;20029;-79
2021/09/03 11:12:10;;;;;;;10.73;6.82;;;21.00;75.70;;;;;;5071434;28;20020;-79
2021/09/03 11:14:38;;;;;;;16.85;9.73;;;21.00;76.50;;;;;;5072306;28;20032;-79
2021/09/03 11:17:12;;;;;;;11.52;8.55;;;21.10;73.50;;;;;;5077156;28;20158;-79
2021/09/03 11:19:45;;;;;;;17.98;10.05;;;21.20;76.10;;;;;;5097058;28;20036;-79
2021/09/03 11:22:17;;;;;;;17.05;8.57;;;21.30;75.30;;;;;;5072662;28;20363;-78
2021/09/03 11:24:51;;;;;;;8.65;6.00;;;21.30;74.60;;;;;;5089806;28;20168;-79
2021/09/03 11:27:20;;;;;;;9.25;6.57;;;21.20;74.80;;;;;;5092447;28;20040;-79
2021/09/03 11:29:51;;;;;;;9.95;6.05;;;21.20;72.70;;;;;;5089502;28;20031;-79
2021/09/03 11:32:22;;;;;;;7.68;5.75;;;21.10;73.50;;;;;;5103705;28;20051;-79
2021/09/03 11:35:00;;;;;;;7.35;5.53;;;21.30;75.20;;;;;;5092440;28;20024;-79
2021/09/03 11:37:45;;;;;;;8.05;5.75;;;21.10;73.30;;;;;;5108311;28;20028;-79
2021/09/03 11:40:19;;;;;;;12.07;8.05;;;21.10;71.60;;;;;;5092685;28;20497;-79
2021/09/03 11:42:53;;;;;;;10.15;6.68;;;21.10;75.20;;;;;;5083991;28;20023;-79
2021/09/03 11:45:31;;;;;;;6.45;5.30;;;20.90;75.30;;;;;;5092080;28;20032;-78
2021/09/03 11:48:02;;;;;;;11.05;6.72;;;20.70;74.90;;;;;;5106392;28;20520;-79
2021/09/03 11:50:39;;;;;;;13.98;9.35;;;20.80;77.70;;;;;;5092527;28;20025;-78
2021/09/03 11:53:07;;;;;;;15.05;8.68;;;21.00;79.90;;;;;;5108249;28;20024;-79
2021/09/03 11:55:39;;;;;;;12.93;7.20;;;21.20;77.90;;;;;;5092472;28;20020;-78
2021/09/03 11:58:10;;;;;;;9.85;7.40;;;21.40;75.00;;;;;;5108274;28;20020;-79
2021/09/03 12:00:41;;;;;;;9.88;6.45;;;21.60;71.30;;;;;;5092309;28;20024;-78
2021/09/03 12:03:12;;;;;;;7.65;5.95;;;21.70;72.00;;;;;;5092944;28;20028;-79
2021/09/03 12:05:58;;;;;;;9.25;6.22;;;21.80;67.60;;;;;;5111714;28;20431;-79
2021/09/03 12:08:30;;;;;;;7.93;6.28;;;21.90;68.80;;;;;;5093623;28;20101;-79
2021/09/03 12:11:03;;;;;;;6.85;6.18;;;21.90;68.10;;;;;;5111643;28;20455;-79
2021/09/03 12:13:30;;;;;;;7.70;5.43;;;21.80;70.20;;;;;;5095941;28;20016;-79
2021/09/03 12:16:00;;;;;;;5.72;4.80;;;21.70;66.80;;;;;;5097105;28;20024;-79
2021/09/03 12:18:37;;;;;;;9.15;5.47;;;21.70;66.80;;;;;;5113808;28;20027;-79
2021/09/03 12:21:11;;;;;;;6.55;5.40;;;21.60;67.00;;;;;;5114676;28;20050;-79
2021/09/03 12:23:48;;;;;;;7.00;5.93;;;21.80;69.90;;;;;;5114706;28;20146;-79
2021/09/03 12:26:16;;;;;;;7.75;6.22;;;21.80;68.00;;;;;;5116075;28;20027;-79
2021/09/03 12:28:44;;;;;;;9.70;5.88;;;22.10;74.10;;;;;;5111123;28;20032;-79
2021/09/03 12:31:14;;;;;;;7.57;5.68;;;22.10;69.10;;;;;;5093974;27;20171;-78
2021/09/03 12:33:53;;;;;;;11.15;6.25;;;21.90;66.10;;;;;;5072607;28;20027;-78
2021/09/03 12:36:24;;;;;;;9.25;6.15;;;21.90;70.30;;;;;;5090300;28;20044;-79
2021/09/03 12:38:53;;;;;;;12.25;5.35;;;22.00;71.00;;;;;;5092597;28;20098;-79